Terminal Aerodrome Forecast
Issued by NWS

Home | Current Version | Previous Version | Text Only | Print | Product List | Glossary On
Versions: 1 2 3 4 5 6 7 8 9 10 11 12 13 14 15 16 17 18 19 20 21 22 23 24 25 26 27 28 29 30
000
FTUS41 KBOX 251720
TAFFMH
TAF
KFMH 251720Z 2518/2618 27014G25KT P6SM FEW040
     FM252100 29011KT P6SM FEW250
     FM260800 01005KT P6SM BKN120
     FM261200 03005KT P6SM OVC020
     FM261400 05009KT P6SM OVC020
     FM261700 06012G20KT P6SM OVC020=

USA.gov is the U.S. government's official web portal to all federal, state and local government web resources and services.